San Jose (SJC/KSJC)

Information

Location
San Jose, CA
Local Time
16:23 / 4:23 pm
GMT Time
00:23 / 12:23 am
Gates
Unassigned
No FAA reported delays
METAR KSJC 222353Z 30015KT 10SM FEW033 SCT046 SCT100 12/02 A3020 RMK AO2 SLP227 T01220022 10133 20106 56010
TAF KSJC 222326Z 2300/2324 30014G21KT P6SM FEW040 SCT050 BKN150 FM230600 30009KT P6SM FEW040 FEW060 SCT150 FM230800 30005KT P6SM FEW150 FM231000 VRB03KT P6SM FEW200 FM231800 30008KT P6SM SKC FM232300 30011G18KT P6SM SKC
  • No charts available